createdAt,value
2022-11-21T00:01:19.536Z,25.70
2022-11-21T00:03:46.859Z,27.25
2022-11-21T00:06:14.423Z,26.17
2022-11-21T00:08:41.247Z,26.52
2022-11-21T00:11:08.002Z,27.25
2022-11-21T00:13:35.143Z,23.95
2022-11-21T00:16:11.361Z,26.48
2022-11-21T00:18:38.299Z,26.65
2022-11-21T00:21:14.474Z,24.13
2022-11-21T00:23:41.921Z,25.05
2022-11-21T00:26:10.419Z,23.75
2022-11-21T00:28:37.903Z,26.00
2022-11-21T00:31:05.497Z,24.10
2022-11-21T00:33:34.461Z,23.70
2022-11-21T00:36:09.516Z,24.27
2022-11-21T00:38:36.780Z,23.88
2022-11-21T00:41:03.909Z,22.73
2022-11-21T00:43:30.671Z,21.42
2022-11-21T00:45:58.661Z,22.15
2022-11-21T00:48:25.438Z,20.55
2022-11-21T00:50:52.247Z,20.40
2022-11-21T00:53:19.026Z,20.13
2022-11-21T00:55:45.882Z,20.02
2022-11-21T00:58:12.663Z,20.02
2022-11-21T01:00:39.527Z,18.00
2022-11-21T01:03:06.397Z,16.85
2022-11-21T01:05:33.586Z,19.38
2022-11-21T01:08:00.484Z,17.98
2022-11-21T01:10:27.223Z,17.92
2022-11-21T01:12:54.109Z,16.83
2022-11-21T01:15:20.960Z,17.00
2022-11-21T01:17:47.715Z,15.35
2022-11-21T01:20:14.854Z,15.05
2022-11-21T01:22:41.768Z,19.48
2022-11-21T01:25:08.734Z,17.17
2022-11-21T01:27:35.663Z,16.40
2022-11-21T01:30:02.449Z,17.67
2022-11-21T01:32:29.185Z,17.52
2022-11-21T01:34:55.946Z,16.20
2022-11-21T01:37:22.694Z,16.60
2022-11-21T01:39:49.475Z,16.08
2022-11-21T01:42:16.274Z,16.60
2022-11-21T01:44:53.524Z,15.65
2022-11-21T01:47:22.637Z,16.65
2022-11-21T01:49:52.403Z,16.83
2022-11-21T01:52:25.534Z,15.82
2022-11-21T01:54:54.700Z,16.05
2022-11-21T01:57:29.746Z,16.73
2022-11-21T02:00:02.301Z,16.42
2022-11-21T02:02:33.044Z,15.98
2022-11-21T02:05:01.243Z,15.50
2022-11-21T02:07:33.102Z,16.30
2022-11-21T02:10:02.014Z,15.27
2022-11-21T02:12:39.853Z,15.90
2022-11-21T02:15:07.415Z,16.02
2022-11-21T02:17:34.177Z,15.85
2022-11-21T02:20:07.349Z,16.45
2022-11-21T02:23:02.147Z,14.27
2022-11-21T02:25:35.457Z,14.48
2022-11-21T02:28:07.095Z,16.30
2022-11-21T02:30:38.710Z,15.77
2022-11-21T02:33:06.294Z,16.80
2022-11-21T02:35:33.968Z,17.15
2022-11-21T02:38:06.765Z,15.77
2022-11-21T02:40:41.834Z,15.40
2022-11-21T02:43:22.653Z,14.80
2022-11-21T02:45:49.494Z,15.82
2022-11-21T02:48:16.554Z,14.40
2022-11-21T02:50:45.244Z,15.55
2022-11-21T02:53:15.816Z,15.10
2022-11-21T02:55:43.126Z,15.80
2022-11-21T02:58:10.679Z,16.40
2022-11-21T03:00:41.098Z,14.93
2022-11-21T03:03:08.191Z,27.60
2022-11-21T03:05:35.182Z,27.38
2022-11-21T03:08:01.951Z,28.30
2022-11-21T03:10:28.729Z,24.23
2022-11-21T03:13:01.029Z,17.02
2022-11-21T03:15:30.614Z,15.52
2022-11-21T03:17:57.734Z,14.38
2022-11-21T03:20:24.816Z,15.50
2022-11-21T03:22:53.583Z,15.55
2022-11-21T03:25:20.963Z,14.13
2022-11-21T03:27:51.001Z,14.50
2022-11-21T03:30:18.013Z,14.40
2022-11-21T03:32:44.922Z,15.48
2022-11-21T03:35:11.883Z,15.68
2022-11-21T03:37:38.625Z,17.45
2022-11-21T03:40:05.999Z,17.83
2022-11-21T03:42:32.818Z,17.40
2022-11-21T03:44:59.620Z,17.30
2022-11-21T03:47:27.464Z,17.52
2022-11-21T03:49:54.268Z,17.00
2022-11-21T03:52:21.739Z,18.60
2022-11-21T03:54:48.504Z,19.42
2022-11-21T03:57:15.261Z,17.92
2022-11-21T03:59:42.046Z,18.20
2022-11-21T04:02:09.015Z,17.05
2022-11-21T04:04:35.846Z,18.88
2022-11-21T04:07:02.667Z,18.83
2022-11-21T04:09:29.478Z,19.92
2022-11-21T04:11:56.333Z,19.85
2022-11-21T04:14:23.089Z,19.70
2022-11-21T04:16:49.938Z,19.98
2022-11-21T04:19:16.677Z,17.30
2022-11-21T04:21:43.425Z,19.55
2022-11-21T04:24:10.262Z,18.63
2022-11-21T04:26:37.024Z,18.83
2022-11-21T04:29:03.859Z,18.95
2022-11-21T04:31:31.772Z,19.38
2022-11-21T04:33:59.121Z,19.70
2022-11-21T04:36:25.913Z,19.38
2022-11-21T04:38:52.746Z,20.00
2022-11-21T04:41:19.518Z,19.77
2022-11-21T04:43:46.304Z,19.08
2022-11-21T04:46:13.063Z,19.20
2022-11-21T04:48:39.843Z,19.10
2022-11-21T04:51:06.607Z,20.08
2022-11-21T04:53:36.295Z,19.35
2022-11-21T04:56:06.650Z,18.15
2022-11-21T04:58:33.428Z,18.58
2022-11-21T05:01:06.985Z,19.08
2022-11-21T05:03:33.765Z,18.23
2022-11-21T05:06:00.559Z,18.35
2022-11-21T05:08:27.329Z,18.65
2022-11-21T05:11:12.564Z,18.60
2022-11-21T05:13:39.417Z,18.98
2022-11-21T05:16:06.340Z,18.73
2022-11-21T05:18:33.124Z,17.55
2022-11-21T05:21:01.604Z,19.17
2022-11-21T05:23:28.366Z,18.38
2022-11-21T05:25:55.158Z,18.27
2022-11-21T05:28:21.973Z,17.25
2022-11-21T05:30:48.790Z,16.52
2022-11-21T05:33:15.573Z,16.73
2022-11-21T05:35:43.576Z,17.15
2022-11-21T05:38:11.050Z,16.17
2022-11-21T05:40:38.064Z,18.23
2022-11-21T05:43:23.490Z,17.20
2022-11-21T05:45:50.726Z,16.05
2022-11-21T05:48:18.070Z,17.85
2022-11-21T05:50:48.551Z,16.23
2022-11-21T05:53:16.430Z,16.95
2022-11-21T05:55:43.251Z,17.52
2022-11-21T05:58:11.031Z,17.15
2022-11-21T06:00:38.431Z,15.63
2022-11-21T06:03:24.776Z,15.93
2022-11-21T06:05:51.778Z,15.68
2022-11-21T06:08:18.947Z,16.73
2022-11-21T06:10:45.752Z,15.68
2022-11-21T06:13:24.460Z,16.52
2022-11-21T06:16:03.349Z,16.27
2022-11-21T06:18:33.810Z,14.95
2022-11-21T06:21:09.543Z,15.27
2022-11-21T06:23:36.707Z,15.68
2022-11-21T06:26:06.033Z,16.48
2022-11-21T06:28:38.390Z,17.23
2022-11-21T06:31:05.940Z,15.55
2022-11-21T06:33:33.768Z,15.93
2022-11-21T06:36:15.554Z,16.42
2022-11-21T06:38:43.923Z,16.33
2022-11-21T06:41:19.302Z,14.63
2022-11-21T06:43:46.332Z,35.92
2022-11-21T06:46:14.106Z,28.33
2022-11-21T06:48:41.285Z,20.17
2022-11-21T06:51:19.870Z,18.42
2022-11-21T06:53:48.289Z,19.50
2022-11-21T06:56:15.925Z,17.15
2022-11-21T06:58:42.714Z,18.35
2022-11-21T07:01:10.660Z,18.48
2022-11-21T07:03:37.769Z,16.60
2022-11-21T07:06:05.279Z,15.68
2022-11-21T07:08:34.026Z,14.45
2022-11-21T07:11:24.237Z,16.60
2022-11-21T07:13:49.732Z,17.13
2022-11-21T07:16:16.539Z,18.85
2022-11-21T07:18:44.480Z,17.80
2022-11-21T07:21:16.334Z,19.15
2022-11-21T07:26:11.057Z,18.00
2022-11-21T07:28:37.910Z,19.38
2022-11-21T07:31:10.077Z,18.73
2022-11-21T07:33:38.697Z,18.35
2022-11-21T07:36:05.874Z,17.95
2022-11-21T07:38:32.702Z,16.13
2022-11-21T07:40:59.495Z,18.02
2022-11-21T07:43:26.284Z,18.48
2022-11-21T07:45:53.133Z,18.27
2022-11-21T07:48:19.999Z,18.77
2022-11-21T07:50:46.769Z,19.52
2022-11-21T07:53:13.655Z,18.90
2022-11-21T07:55:41.122Z,17.05
2022-11-21T07:58:10.954Z,17.48
2022-11-21T08:00:40.098Z,21.23
2022-11-21T08:03:07.392Z,20.20
2022-11-21T08:05:38.619Z,19.67
2022-11-21T08:08:10.091Z,19.08
2022-11-21T08:10:45.933Z,19.70
2022-11-21T08:13:13.959Z,19.15
2022-11-21T08:15:41.426Z,20.33
2022-11-21T08:18:12.910Z,18.27
2022-11-21T08:20:40.275Z,20.50
2022-11-21T08:23:07.599Z,19.75
2022-11-21T08:25:36.742Z,20.75
2022-11-21T08:28:03.730Z,19.10
2022-11-21T08:30:31.221Z,19.02
2022-11-21T08:32:58.999Z,18.40
2022-11-21T08:35:30.228Z,18.52
2022-11-21T08:38:01.566Z,18.80
2022-11-21T08:40:30.647Z,18.85
2022-11-21T08:43:02.770Z,20.05
2022-11-21T08:45:29.904Z,18.58
2022-11-21T08:47:56.749Z,17.52
2022-11-21T08:50:24.213Z,17.88
2022-11-21T08:52:51.359Z,14.65
2022-11-21T08:55:18.303Z,16.02
2022-11-21T08:57:45.073Z,16.50
2022-11-21T09:00:13.225Z,16.67
2022-11-21T09:02:40.140Z,17.92
2022-11-21T09:05:07.400Z,16.50
2022-11-21T09:07:34.209Z,16.08
2022-11-21T09:10:01.100Z,16.17
2022-11-21T09:12:27.881Z,15.15
2022-11-21T09:15:13.170Z,14.85
2022-11-21T09:17:58.409Z,15.07
2022-11-21T09:20:25.275Z,15.07
2022-11-21T09:22:52.290Z,14.43
2022-11-21T09:25:19.209Z,15.65
2022-11-21T09:27:47.016Z,13.98
2022-11-21T09:30:14.441Z,15.13
2022-11-21T09:32:41.560Z,15.07
2022-11-21T09:35:09.080Z,14.57
2022-11-21T09:37:39.143Z,14.15
2022-11-21T09:40:06.578Z,13.70
2022-11-21T09:43:10.830Z,13.90
2022-11-21T09:45:56.348Z,13.25
2022-11-21T09:48:47.342Z,15.18
2022-11-21T09:51:17.246Z,15.75
2022-11-21T09:53:59.086Z,15.43
2022-11-21T09:56:28.966Z,15.07
2022-11-21T09:59:26.146Z,13.95
2022-11-21T10:01:52.964Z,12.85
2022-11-21T10:04:20.120Z,13.82
2022-11-21T10:07:17.029Z,14.13
2022-11-21T10:10:02.509Z,12.77
2022-11-21T10:12:50.674Z,12.80
2022-11-21T10:15:57.374Z,13.57
2022-11-21T10:18:46.424Z,12.80
2022-11-21T10:21:48.950Z,12.43
2022-11-21T10:24:18.542Z,12.02
2022-11-21T10:27:02.477Z,12.25
2022-11-21T10:29:47.883Z,13.25
2022-11-21T10:32:38.641Z,13.63
2022-11-21T10:35:26.169Z,13.02
2022-11-21T10:37:55.916Z,13.32
2022-11-21T10:40:42.320Z,12.60
2022-11-21T10:43:42.601Z,11.52
2022-11-21T10:46:09.677Z,12.55
2022-11-21T10:48:36.803Z,11.77
2022-11-21T10:51:23.237Z,11.35
2022-11-21T10:54:25.759Z,11.95
2022-11-21T10:56:54.447Z,13.10
2022-11-21T10:59:30.564Z,12.02
2022-11-21T11:02:22.051Z,11.48
2022-11-21T11:04:52.205Z,11.65
2022-11-21T11:07:26.688Z,13.07
2022-11-21T11:10:14.055Z,12.02
2022-11-21T11:13:01.668Z,13.23
2022-11-21T11:15:29.144Z,12.38
2022-11-21T11:18:03.976Z,13.40
2022-11-21T11:20:40.791Z,13.27
2022-11-21T11:23:26.601Z,12.45
2022-11-21T11:25:58.701Z,12.75
2022-11-21T11:28:27.429Z,11.57
2022-11-21T11:30:55.705Z,13.45
2022-11-21T11:33:38.569Z,12.88
2022-11-21T11:36:30.149Z,12.93
2022-11-21T11:38:59.385Z,13.05
2022-11-21T11:42:17.255Z,13.20
2022-11-21T11:45:34.429Z,12.70
2022-11-21T11:48:07.007Z,11.82
2022-11-21T11:51:00.448Z,12.30
2022-11-21T11:53:33.127Z,11.25
2022-11-21T11:56:31.203Z,12.02
2022-11-21T11:59:10.101Z,11.20
2022-11-21T12:01:55.819Z,10.45
2022-11-21T12:04:25.309Z,10.77
2022-11-21T12:11:14.336Z,10.43
2022-11-21T12:13:43.322Z,9.02
2022-11-21T12:16:14.140Z,9.32
2022-11-21T12:18:58.637Z,9.30
2022-11-21T12:21:25.616Z,8.30
2022-11-21T12:23:55.183Z,6.53
2022-11-21T12:26:34.910Z,8.50
2022-11-21T12:29:23.351Z,8.60
2022-11-21T12:32:08.748Z,8.82
2022-11-21T12:34:44.371Z,8.68
2022-11-21T12:37:26.269Z,9.00
2022-11-21T12:39:58.843Z,7.53
2022-11-21T12:42:51.203Z,8.45
2022-11-21T12:45:38.055Z,9.02
2022-11-21T12:48:57.168Z,8.70
2022-11-21T12:51:57.541Z,9.05
2022-11-21T12:55:09.448Z,8.60
2022-11-21T12:57:56.420Z,7.35
2022-11-21T13:00:48.156Z,6.80
2022-11-21T13:03:34.143Z,7.32
2022-11-21T13:06:04.026Z,6.28
2022-11-21T13:08:39.870Z,6.70
2022-11-21T13:11:53.288Z,6.10
2022-11-21T13:14:28.900Z,6.45
2022-11-21T13:17:26.673Z,6.55
2022-11-21T13:20:05.345Z,7.25
2022-11-21T13:22:38.107Z,6.93
2022-11-21T13:25:40.065Z,6.57
2022-11-21T13:28:19.182Z,6.55
2022-11-21T13:30:51.118Z,6.68
2022-11-21T13:33:36.186Z,7.03
2022-11-21T13:36:11.755Z,6.53
2022-11-21T13:38:56.481Z,7.72
2022-11-21T13:41:53.883Z,6.30
2022-11-21T13:44:32.615Z,4.80
2022-11-21T13:47:02.251Z,5.40
2022-11-21T13:49:40.094Z,5.63
2022-11-21T13:52:32.710Z,5.25
2022-11-21T13:55:25.799Z,5.13
2022-11-21T13:58:31.495Z,5.22
2022-11-21T14:01:17.148Z,4.75
2022-11-21T14:04:00.052Z,5.03
2022-11-21T14:06:38.887Z,4.78
2022-11-21T14:09:14.841Z,4.70
2022-11-21T14:11:49.843Z,4.55
2022-11-21T14:14:31.540Z,5.18
2022-11-21T14:17:22.013Z,5.55
2022-11-21T14:19:49.686Z,5.25
2022-11-21T14:22:30.481Z,5.82
2022-11-21T14:25:01.158Z,5.97
2022-11-21T14:27:31.964Z,5.70
2022-11-21T14:29:59.020Z,5.38
2022-11-21T14:32:30.110Z,5.53
2022-11-21T14:35:26.672Z,5.85
2022-11-21T14:37:54.054Z,5.35
2022-11-21T14:40:24.102Z,4.93
2022-11-21T14:42:51.024Z,5.82
2022-11-21T14:45:23.398Z,5.85
2022-11-21T14:47:54.393Z,7.15
2022-11-21T14:50:26.511Z,7.75
2022-11-21T14:52:57.438Z,7.35
2022-11-21T14:55:30.731Z,6.88
2022-11-21T14:58:01.229Z,7.63
2022-11-21T15:00:58.504Z,6.57
2022-11-21T15:03:22.674Z,6.63
2022-11-21T15:06:08.273Z,7.05
2022-11-21T15:11:57.345Z,7.30
2022-11-21T15:14:34.552Z,7.03
2022-11-21T15:17:04.274Z,7.03
2022-11-21T15:19:32.829Z,7.05
2022-11-21T15:22:04.713Z,7.38
2022-11-21T15:24:42.840Z,7.78
2022-11-21T15:27:28.179Z,7.50
2022-11-21T15:30:07.495Z,8.05
2022-11-21T15:32:34.269Z,7.22
2022-11-21T15:35:31.907Z,6.57
2022-11-21T15:37:59.090Z,6.78
2022-11-21T15:40:26.027Z,7.28
2022-11-21T15:42:52.849Z,7.90
2022-11-21T15:45:23.905Z,7.70
2022-11-21T15:47:50.871Z,7.70
2022-11-21T15:50:18.159Z,7.50
2022-11-21T15:52:49.821Z,8.10
2022-11-21T15:55:29.413Z,8.95
2022-11-21T15:57:56.182Z,8.45
2022-11-21T16:00:23.067Z,8.98
2022-11-21T16:02:49.840Z,9.60
2022-11-21T16:05:16.710Z,9.85
2022-11-21T16:07:43.495Z,8.80
2022-11-21T16:10:18.292Z,9.25
2022-11-21T16:12:48.612Z,8.50
2022-11-21T16:15:15.433Z,9.52
2022-11-21T16:17:42.206Z,8.93
2022-11-21T16:20:09.439Z,8.85
2022-11-21T16:22:36.377Z,8.65
2022-11-21T16:25:03.238Z,8.57
2022-11-21T16:27:32.120Z,8.40
2022-11-21T16:29:58.885Z,9.68
2022-11-21T16:32:26.731Z,10.57
2022-11-21T16:34:54.718Z,9.85
2022-11-21T16:37:21.690Z,9.45
2022-11-21T16:39:52.033Z,9.80
2022-11-21T16:42:20.183Z,8.68
2022-11-21T16:44:48.155Z,8.95
2022-11-21T16:47:15.255Z,9.95
2022-11-21T16:49:48.445Z,11.23
2022-11-21T16:52:16.077Z,10.75
2022-11-21T16:54:42.837Z,11.15
2022-11-21T16:57:09.720Z,10.98
2022-11-21T16:59:36.463Z,11.82
2022-11-21T17:02:03.880Z,12.77
2022-11-21T17:04:31.092Z,11.20
2022-11-21T17:06:58.181Z,10.30
2022-11-21T17:09:24.945Z,11.63
2022-11-21T17:11:51.919Z,12.40
2022-11-21T17:14:18.696Z,13.93
2022-11-21T17:16:45.879Z,12.55
2022-11-21T17:19:16.265Z,11.88
2022-11-21T17:21:43.143Z,10.30
2022-11-21T17:24:13.200Z,10.48
2022-11-21T17:26:40.096Z,10.48
2022-11-21T17:29:07.127Z,10.60
2022-11-21T17:31:34.509Z,10.95
2022-11-21T17:34:01.835Z,10.68
2022-11-21T17:36:30.615Z,11.68
2022-11-21T17:38:57.538Z,11.40
2022-11-21T17:41:25.330Z,10.93
2022-11-21T17:43:56.961Z,10.18
2022-11-21T17:46:28.227Z,9.38
2022-11-21T17:48:58.221Z,9.80
2022-11-21T17:51:29.343Z,10.43
2022-11-21T17:53:56.686Z,10.70
2022-11-21T17:56:26.474Z,11.52
2022-11-21T17:58:53.645Z,9.55
2022-11-21T18:01:21.013Z,12.73
2022-11-21T18:03:59.187Z,12.35
2022-11-21T18:06:28.292Z,11.10
2022-11-21T18:08:59.641Z,13.00
2022-11-21T18:11:39.611Z,12.57
2022-11-21T18:14:08.769Z,11.50
2022-11-21T18:16:36.116Z,11.13
2022-11-21T18:19:03.072Z,11.73
2022-11-21T18:21:32.392Z,12.05
2022-11-21T18:24:02.588Z,13.18
2022-11-21T18:26:35.457Z,14.27
2022-11-21T18:29:34.723Z,14.27
2022-11-21T18:31:51.380Z,14.13
2022-11-21T18:34:18.335Z,16.65
2022-11-21T18:36:45.391Z,15.43
2022-11-21T18:39:15.064Z,16.42
2022-11-21T18:41:42.746Z,14.13
2022-11-21T18:44:10.164Z,13.93
2022-11-21T18:46:38.755Z,13.45
2022-11-21T18:49:07.845Z,14.20
2022-11-21T18:51:36.053Z,15.50
2022-11-21T18:54:08.708Z,14.40
2022-11-21T18:56:37.398Z,14.95
2022-11-21T18:59:06.119Z,14.30
2022-11-21T19:01:34.646Z,13.75
2022-11-21T19:04:01.492Z,13.93
2022-11-21T19:06:31.772Z,14.07
2022-11-21T19:08:59.061Z,14.65
2022-11-21T19:11:28.637Z,15.40
2022-11-21T19:13:57.206Z,15.63
2022-11-21T19:16:25.868Z,16.92
2022-11-21T19:21:42.922Z,14.95
2022-11-21T19:24:14.463Z,14.40
2022-11-21T19:26:41.795Z,16.27
2022-11-21T19:29:09.551Z,16.40
2022-11-21T19:31:41.036Z,15.23
2022-11-21T19:34:12.962Z,15.25
2022-11-21T19:36:40.032Z,14.80
2022-11-21T19:39:07.301Z,15.05
2022-11-21T19:41:34.082Z,16.65
2022-11-21T19:44:21.940Z,18.00
2022-11-21T19:46:49.568Z,15.98
2022-11-21T19:49:20.088Z,15.18
2022-11-21T19:51:46.832Z,15.15
2022-11-21T19:54:15.510Z,15.32
2022-11-21T19:56:42.380Z,16.40
2022-11-21T19:59:13.680Z,16.35
2022-11-21T20:01:40.797Z,17.45
2022-11-21T20:04:07.743Z,16.38
2022-11-21T20:06:36.984Z,14.98
2022-11-21T20:09:19.063Z,15.70
2022-11-21T20:11:48.531Z,16.58
2022-11-21T20:14:21.444Z,15.93
2022-11-21T20:16:49.957Z,15.95
2022-11-21T20:19:18.233Z,15.00
2022-11-21T20:21:45.921Z,15.48
2022-11-21T20:24:13.239Z,15.73
2022-11-21T20:26:40.308Z,16.10
2022-11-21T20:29:07.757Z,16.48
2022-11-21T20:31:37.246Z,15.85
2022-11-21T20:34:12.596Z,15.77
2022-11-21T20:36:40.155Z,16.20
2022-11-21T20:39:18.304Z,15.70
2022-11-21T20:41:46.633Z,17.50
2022-11-21T20:47:07.027Z,15.77
2022-11-21T20:49:33.919Z,15.57
2022-11-21T20:54:47.547Z,17.45
2022-11-21T20:57:15.449Z,18.92
2022-11-21T20:59:42.705Z,22.48
2022-11-21T21:02:12.013Z,25.00
2022-11-21T21:04:38.955Z,23.83
2022-11-21T21:07:05.805Z,27.77
2022-11-21T21:09:32.613Z,27.88
2022-11-21T21:11:59.401Z,27.67
2022-11-21T21:14:26.120Z,26.95
2022-11-21T21:16:52.903Z,25.33
2022-11-21T21:19:20.548Z,27.77
2022-11-21T21:21:47.690Z,28.83
2022-11-21T21:24:15.221Z,29.27
2022-11-21T21:26:44.784Z,31.05
2022-11-21T21:29:17.637Z,32.60
2022-11-21T21:31:50.594Z,30.02
2022-11-21T21:34:18.331Z,28.15
2022-11-21T21:36:45.314Z,32.65
2022-11-21T21:39:12.096Z,31.08
2022-11-21T21:41:41.441Z,29.13
2022-11-21T21:44:08.270Z,30.00
2022-11-21T21:46:35.044Z,30.33
2022-11-21T21:49:01.888Z,31.23
2022-11-21T21:51:30.757Z,31.33
2022-11-21T21:53:59.104Z,29.15
2022-11-21T21:56:27.512Z,31.20
2022-11-21T21:58:54.858Z,30.58
2022-11-21T22:01:27.677Z,29.35
2022-11-21T22:03:59.969Z,29.95
2022-11-21T22:06:27.283Z,33.38
2022-11-21T22:08:54.782Z,33.35
2022-11-21T22:11:29.301Z,31.88
2022-11-21T22:13:58.761Z,33.83
2022-11-21T22:16:25.705Z,32.67
2022-11-21T22:18:52.952Z,32.38
2022-11-21T22:21:22.156Z,32.45
2022-11-21T22:24:23.395Z,33.92
2022-11-21T22:26:36.040Z,33.30
2022-11-21T22:29:02.917Z,39.67
2022-11-21T22:31:31.427Z,32.50
2022-11-21T22:33:58.575Z,36.60
2022-11-21T22:36:25.669Z,34.00
2022-11-21T22:38:53.790Z,35.08
2022-11-21T22:41:25.560Z,34.75
2022-11-21T22:46:20.764Z,33.40
2022-11-21T22:48:48.095Z,32.92
2022-11-21T22:51:17.837Z,33.13
2022-11-21T22:53:46.586Z,33.38
2022-11-21T22:56:15.319Z,34.25
2022-11-21T22:58:42.358Z,33.90
2022-11-21T23:01:15.236Z,34.95
2022-11-21T23:03:43.116Z,33.30
2022-11-21T23:06:15.049Z,33.75
2022-11-21T23:08:42.290Z,33.80
2022-11-21T23:11:17.577Z,33.80
2022-11-21T23:13:46.214Z,30.95
2022-11-21T23:16:13.773Z,30.48
2022-11-21T23:18:41.036Z,31.30
2022-11-21T23:21:09.137Z,29.95
2022-11-21T23:23:36.182Z,31.23
2022-11-21T23:26:04.293Z,30.35
2022-11-21T23:28:31.258Z,30.70
2022-11-21T23:30:58.373Z,31.63
2022-11-21T23:33:25.351Z,32.60
2022-11-21T23:35:52.295Z,29.48
2022-11-21T23:38:19.643Z,31.27
2022-11-21T23:40:47.262Z,30.83
2022-11-21T23:43:15.545Z,29.88
2022-11-21T23:45:42.932Z,32.15
2022-11-21T23:48:09.774Z,102.57
2022-11-21T23:50:36.811Z,34.40
2022-11-21T23:53:03.774Z,33.33
2022-11-21T23:55:30.553Z,31.80
2022-11-21T23:57:57.315Z,30.85
